sensor_id;sensor_type;location;lat;lon;timestamp;pressure;altitude;pressure_sealevel;temperature;humidity
81865;BME280;71313;43.514;1.500;2023-11-21T00:00:19;100261.50;;;14.11;68.03
81865;BME280;71313;43.514;1.500;2023-11-21T00:02:45;100262.47;;;14.10;68.53
81865;BME280;71313;43.514;1.500;2023-11-21T00:05:12;100258.28;;;14.06;67.52
81865;BME280;71313;43.514;1.500;2023-11-21T00:07:41;100264.16;;;14.00;68.08
81865;BME280;71313;43.514;1.500;2023-11-21T00:10:11;100264.28;;;13.98;68.76
81865;BME280;71313;43.514;1.500;2023-11-21T00:12:37;100262.44;;;13.98;67.72
81865;BME280;71313;43.514;1.500;2023-11-21T00:15:03;100261.69;;;13.96;68.82
81865;BME280;71313;43.514;1.500;2023-11-21T00:17:30;100264.38;;;13.96;68.19
81865;BME280;71313;43.514;1.500;2023-11-21T00:19:55;100268.06;;;13.95;67.94
81865;BME280;71313;43.514;1.500;2023-11-21T00:22:23;100268.94;;;13.96;68.61
81865;BME280;71313;43.514;1.500;2023-11-21T00:24:49;100253.09;;;13.91;68.40
81865;BME280;71313;43.514;1.500;2023-11-21T00:27:16;100264.13;;;13.88;67.73
81865;BME280;71313;43.514;1.500;2023-11-21T00:29:41;100258.72;;;13.88;69.02
81865;BME280;71313;43.514;1.500;2023-11-21T00:32:07;100255.78;;;13.91;67.46
81865;BME280;71313;43.514;1.500;2023-11-21T00:34:34;100244.13;;;13.91;68.19
81865;BME280;71313;43.514;1.500;2023-11-21T00:37:00;100244.25;;;13.89;68.54
81865;BME280;71313;43.514;1.500;2023-11-21T00:39:26;100233.81;;;13.85;67.65
81865;BME280;71313;43.514;1.500;2023-11-21T00:41:54;100234.91;;;13.82;68.51
81865;BME280;71313;43.514;1.500;2023-11-21T00:44:19;100229.06;;;13.88;68.48
81865;BME280;71313;43.514;1.500;2023-11-21T00:46:44;100234.69;;;13.85;67.47
81865;BME280;71313;43.514;1.500;2023-11-21T00:49:10;100229.28;;;13.85;68.43
81865;BME280;71313;43.514;1.500;2023-11-21T00:51:35;100240.94;;;13.86;67.90
81865;BME280;71313;43.514;1.500;2023-11-21T00:54:02;100242.25;;;13.80;67.58
81865;BME280;71313;43.514;1.500;2023-11-21T00:56:28;100238.59;;;13.81;67.98
81865;BME280;71313;43.514;1.500;2023-11-21T00:58:55;100236.88;;;13.80;68.05
81865;BME280;71313;43.514;1.500;2023-11-21T01:01:21;100234.91;;;13.82;67.82
81865;BME280;71313;43.514;1.500;2023-11-21T01:03:51;100234.69;;;13.85;67.61
81865;BME280;71313;43.514;1.500;2023-11-21T01:06:17;100235.91;;;13.81;68.71
81865;BME280;71313;43.514;1.500;2023-11-21T01:08:44;100234.91;;;13.82;68.07
81865;BME280;71313;43.514;1.500;2023-11-21T01:11:11;100220.94;;;13.77;67.69
81865;BME280;71313;43.514;1.500;2023-11-21T01:13:40;100229.75;;;13.79;68.62
81865;BME280;71313;43.514;1.500;2023-11-21T01:16:06;100219.19;;;13.76;67.92
81865;BME280;71313;43.514;1.500;2023-11-21T01:18:34;100221.16;;;13.74;68.39
81865;BME280;71313;43.514;1.500;2023-11-21T01:21:02;100218.34;;;13.76;67.87
81865;BME280;71313;43.514;1.500;2023-11-21T01:23:29;100220.94;;;13.77;67.57
81865;BME280;71313;43.514;1.500;2023-11-21T01:25:58;100220.94;;;13.77;67.37
81865;BME280;71313;43.514;1.500;2023-11-21T01:28:25;100218.56;;;13.73;67.62
81865;BME280;71313;43.514;1.500;2023-11-21T01:30:50;100210.38;;;13.74;67.69
81865;BME280;71313;43.514;1.500;2023-11-21T01:33:16;100202.41;;;13.73;67.49
81865;BME280;71313;43.514;1.500;2023-11-21T01:35:43;100197.13;;;13.71;67.90
81865;BME280;71313;43.514;1.500;2023-11-21T01:38:12;100205.84;;;13.75;68.52
81865;BME280;71313;43.514;1.500;2023-11-21T01:40:39;100195.91;;;13.75;68.56
81865;BME280;71313;43.514;1.500;2023-11-21T01:43:06;100202.50;;;13.71;68.14
81865;BME280;71313;43.514;1.500;2023-11-21T01:45:33;100192.72;;;13.70;68.53
81865;BME280;71313;43.514;1.500;2023-11-21T01:48:02;100197.13;;;13.71;68.55
81865;BME280;71313;43.514;1.500;2023-11-21T01:50:28;100187.31;;;13.70;68.11
81865;BME280;71313;43.514;1.500;2023-11-21T01:52:54;100193.44;;;13.72;68.28
81865;BME280;71313;43.514;1.500;2023-11-21T01:55:20;100187.31;;;13.70;67.18
81865;BME280;71313;43.514;1.500;2023-11-21T01:57:46;100185.81;;;13.66;67.50
81865;BME280;71313;43.514;1.500;2023-11-21T02:00:13;100182.41;;;13.64;67.86
81865;BME280;71313;43.514;1.500;2023-11-21T02:02:49;100178.72;;;13.65;67.73
81865;BME280;71313;43.514;1.500;2023-11-21T02:05:16;100187.31;;;13.70;67.60
81865;BME280;71313;43.514;1.500;2023-11-21T02:07:45;100172.84;;;13.71;68.12
81865;BME280;71313;43.514;1.500;2023-11-21T02:10:14;100175.31;;;13.74;67.49
81865;BME280;71313;43.514;1.500;2023-11-21T02:12:41;100168.19;;;13.73;68.24
81865;BME280;71313;43.514;1.500;2023-11-21T02:15:08;100161.22;;;13.71;67.25
81865;BME280;71313;43.514;1.500;2023-11-21T02:17:43;100165.25;;;13.65;67.81
81865;BME280;71313;43.514;1.500;2023-11-21T02:20:13;100160.59;;;13.67;67.44
81865;BME280;71313;43.514;1.500;2023-11-21T02:22:41;100157.38;;;13.62;67.51
81865;BME280;71313;43.514;1.500;2023-11-21T02:25:07;100156.28;;;13.64;68.71
81865;BME280;71313;43.514;1.500;2023-11-21T02:27:34;100149.53;;;13.59;69.00
81865;BME280;71313;43.514;1.500;2023-11-21T02:29:59;100150.50;;;13.58;68.42
81865;BME280;71313;43.514;1.500;2023-11-21T02:32:26;100145.13;;;13.58;68.35
81865;BME280;71313;43.514;1.500;2023-11-21T02:34:52;100144.97;;;13.48;68.45
81865;BME280;71313;43.514;1.500;2023-11-21T02:37:21;100132.34;;;13.49;68.19
81865;BME280;71313;43.514;1.500;2023-11-21T02:39:46;100128.69;;;13.50;69.56
81865;BME280;71313;43.514;1.500;2023-11-21T02:42:12;100136.66;;;13.51;69.11
81865;BME280;71313;43.514;1.500;2023-11-21T02:44:40;100133.31;;;13.48;68.91
81865;BME280;71313;43.514;1.500;2023-11-21T02:47:07;100130.13;;;13.43;69.57
81865;BME280;71313;43.514;1.500;2023-11-21T02:49:34;100119.56;;;13.40;69.02
81865;BME280;71313;43.514;1.500;2023-11-21T02:52:01;100119.34;;;13.43;69.30
81865;BME280;71313;43.514;1.500;2023-11-21T02:54:26;100121.06;;;13.44;69.35
81865;BME280;71313;43.514;1.500;2023-11-21T02:56:55;100124.97;;;13.40;69.15
81865;BME280;71313;43.514;1.500;2023-11-21T02:59:21;100118.09;;;13.36;69.19
81865;BME280;71313;43.514;1.500;2023-11-21T03:01:47;100125.91;;;13.27;70.21
81865;BME280;71313;43.514;1.500;2023-11-21T03:04:14;100111.44;;;13.28;70.04
81865;BME280;71313;43.514;1.500;2023-11-21T03:06:43;100106.31;;;13.25;69.18
81865;BME280;71313;43.514;1.500;2023-11-21T03:09:09;100109.97;;;13.24;70.37
81865;BME280;71313;43.514;1.500;2023-11-21T03:11:37;100100.94;;;13.13;69.47
81865;BME280;71313;43.514;1.500;2023-11-21T03:14:02;100100.09;;;13.12;69.35
81865;BME280;71313;43.514;1.500;2023-11-21T03:16:28;100094.94;;;13.09;69.71
81865;BME280;71313;43.514;1.500;2023-11-21T03:18:54;100103.75;;;13.11;69.64
81865;BME280;71313;43.514;1.500;2023-11-21T03:21:21;100106.22;;;13.14;69.71
81865;BME280;71313;43.514;1.500;2023-11-21T03:23:46;100101.81;;;13.13;69.62
81865;BME280;71313;43.514;1.500;2023-11-21T03:26:12;100098.81;;;13.18;69.20
81865;BME280;71313;43.514;1.500;2023-11-21T03:28:38;100087.59;;;13.11;69.84
81865;BME280;71313;43.514;1.500;2023-11-21T03:31:03;100090.59;;;13.19;69.83
81865;BME280;71313;43.514;1.500;2023-11-21T03:33:29;100088.66;;;13.21;69.21
81865;BME280;71313;43.514;1.500;2023-11-21T03:35:54;100088.88;;;13.18;69.65
81865;BME280;71313;43.514;1.500;2023-11-21T03:38:20;100092.56;;;13.17;68.99
81865;BME280;71313;43.514;1.500;2023-11-21T03:40:47;100088.13;;;13.16;69.09
81865;BME280;71313;43.514;1.500;2023-11-21T03:43:16;100092.56;;;13.17;69.49
81865;BME280;71313;43.514;1.500;2023-11-21T03:45:42;100096.22;;;13.16;68.86
81865;BME280;71313;43.514;1.500;2023-11-21T03:48:07;100090.84;;;13.16;70.00
81865;BME280;71313;43.514;1.500;2023-11-21T03:50:34;100085.66;;;13.13;69.78
81865;BME280;71313;43.514;1.500;2023-11-21T03:53:00;100092.00;;;13.12;70.13
81865;BME280;71313;43.514;1.500;2023-11-21T03:55:26;100093.84;;;13.12;69.78
81865;BME280;71313;43.514;1.500;2023-11-21T03:57:52;100092.75;;;13.14;68.89
81865;BME280;71313;43.514;1.500;2023-11-21T04:00:18;100080.25;;;13.13;69.75
81865;BME280;71313;43.514;1.500;2023-11-21T04:02:45;100081.97;;;13.14;69.10
81865;BME280;71313;43.514;1.500;2023-11-21T04:05:11;100091.47;;;13.20;69.79
81865;BME280;71313;43.514;1.500;2023-11-21T04:07:37;100078.09;;;13.18;68.93
81865;BME280;71313;43.514;1.500;2023-11-21T04:10:05;100087.59;;;13.11;69.18
81865;BME280;71313;43.514;1.500;2023-11-21T04:12:33;100073.63;;;13.06;69.79
81865;BME280;71313;43.514;1.500;2023-11-21T04:14:59;100078.03;;;13.07;68.92
81865;BME280;71313;43.514;1.500;2023-11-21T04:17:24;100073.38;;;13.09;69.60
81865;BME280;71313;43.514;1.500;2023-11-21T04:19:50;100068.00;;;13.09;69.71
81865;BME280;71313;43.514;1.500;2023-11-21T04:22:17;100067.13;;;13.09;68.68
81865;BME280;71313;43.514;1.500;2023-11-21T04:24:43;100072.53;;;13.09;69.27
81865;BME280;71313;43.514;1.500;2023-11-21T04:27:09;100075.34;;;13.07;69.44
81865;BME280;71313;43.514;1.500;2023-11-21T04:29:34;100074.94;;;13.00;68.62
81865;BME280;71313;43.514;1.500;2023-11-21T04:32:02;100057.09;;;12.99;68.68
81865;BME280;71313;43.514;1.500;2023-11-21T04:34:28;100064.78;;;12.93;69.03
81865;BME280;71313;43.514;1.500;2023-11-21T04:36:56;100054.34;;;12.88;69.40
81865;BME280;71313;43.514;1.500;2023-11-21T04:39:21;100052.00;;;12.84;68.65
81865;BME280;71313;43.514;1.500;2023-11-21T04:41:47;100069.03;;;12.84;69.80
81865;BME280;71313;43.514;1.500;2023-11-21T04:44:12;100062.78;;;12.84;68.42
81865;BME280;71313;43.514;1.500;2023-11-21T04:46:40;100061.06;;;12.83;68.78
81865;BME280;71313;43.514;1.500;2023-11-21T04:49:07;100059.81;;;12.76;68.80
81865;BME280;71313;43.514;1.500;2023-11-21T04:51:34;100062.50;;;12.76;69.17
81865;BME280;71313;43.514;1.500;2023-11-21T04:53:59;100052.69;;;12.75;68.66
81865;BME280;71313;43.514;1.500;2023-11-21T04:56:25;100054.41;;;12.76;68.65
81865;BME280;71313;43.514;1.500;2023-11-21T04:58:50;100050.00;;;12.75;68.67
81865;BME280;71313;43.514;1.500;2023-11-21T05:01:16;100051.00;;;12.74;69.80
81865;BME280;71313;43.514;1.500;2023-11-21T05:03:42;100045.59;;;12.74;69.19
81865;BME280;71313;43.514;1.500;2023-11-21T05:06:11;100043.53;;;12.77;69.51
81865;BME280;71313;43.514;1.500;2023-11-21T05:08:37;100041.31;;;12.71;68.75
81865;BME280;71313;43.514;1.500;2023-11-21T05:11:03;100044.13;;;12.70;69.14
81865;BME280;71313;43.514;1.500;2023-11-21T05:13:28;100049.50;;;12.70;69.47
81865;BME280;71313;43.514;1.500;2023-11-21T05:15:57;100038.09;;;12.66;69.33
81865;BME280;71313;43.514;1.500;2023-11-21T05:18:24;100034.56;;;12.65;69.29
81865;BME280;71313;43.514;1.500;2023-11-21T05:20:53;100034.66;;;12.64;69.70
81865;BME280;71313;43.514;1.500;2023-11-21T05:23:19;100037.34;;;12.64;68.69
81865;BME280;71313;43.514;1.500;2023-11-21T05:25:45;100031.41;;;12.72;68.99
81865;BME280;71313;43.514;1.500;2023-11-21T05:28:13;100035.56;;;12.76;68.72
81865;BME280;71313;43.514;1.500;2023-11-21T05:30:38;100044.63;;;12.75;68.57
81865;BME280;71313;43.514;1.500;2023-11-21T05:33:07;100034.84;;;12.74;68.78
81865;BME280;71313;43.514;1.500;2023-11-21T05:35:34;100040.72;;;12.79;69.76
81865;BME280;71313;43.514;1.500;2023-11-21T05:37:59;100034.59;;;12.77;69.17
81865;BME280;71313;43.514;1.500;2023-11-21T05:40:24;100044.16;;;12.81;68.79
81865;BME280;71313;43.514;1.500;2023-11-21T05:42:54;100045.03;;;12.81;68.84
81865;BME280;71313;43.514;1.500;2023-11-21T05:45:21;100040.38;;;12.83;68.96
81865;BME280;71313;43.514;1.500;2023-11-21T05:47:46;100031.16;;;12.75;69.19
81865;BME280;71313;43.514;1.500;2023-11-21T05:50:17;100029.97;;;12.79;68.50
81865;BME280;71313;43.514;1.500;2023-11-21T05:52:44;100036.09;;;12.81;68.51
81865;BME280;71313;43.514;1.500;2023-11-21T05:55:10;100025.09;;;12.84;69.03
81865;BME280;71313;43.514;1.500;2023-11-21T05:57:40;100034.88;;;12.85;68.62
81865;BME280;71313;43.514;1.500;2023-11-21T06:00:08;100036.59;;;12.86;68.67
81865;BME280;71313;43.514;1.500;2023-11-21T06:02:42;100028.88;;;12.81;68.83
81865;BME280;71313;43.514;1.500;2023-11-21T06:05:10;100034.13;;;12.83;69.22
81865;BME280;71313;43.514;1.500;2023-11-21T06:07:37;100030.47;;;12.84;68.57
81865;BME280;71313;43.514;1.500;2023-11-21T06:10:05;100041.00;;;12.87;69.56
81865;BME280;71313;43.514;1.500;2023-11-21T06:12:34;100033.69;;;12.89;69.16
81865;BME280;71313;43.514;1.500;2023-11-21T06:15:02;100032.69;;;12.90;68.59
81865;BME280;71313;43.514;1.500;2023-11-21T06:17:31;100031.84;;;12.89;69.74
81865;BME280;71313;43.514;1.500;2023-11-21T06:19:57;100027.31;;;12.90;69.35
81865;BME280;71313;43.514;1.500;2023-11-21T06:22:23;100025.72;;;12.87;69.58
81865;BME280;71313;43.514;1.500;2023-11-21T06:24:50;100030.75;;;12.92;68.96
81865;BME280;71313;43.514;1.500;2023-11-21T06:27:15;100024.38;;;12.93;68.99
81865;BME280;71313;43.514;1.500;2023-11-21T06:29:42;100038.59;;;12.95;69.08
81865;BME280;71313;43.514;1.500;2023-11-21T06:32:09;100034.94;;;12.96;69.31
81865;BME280;71313;43.514;1.500;2023-11-21T06:34:35;100033.22;;;12.95;69.19
81865;BME280;71313;43.514;1.500;2023-11-21T06:37:01;100034.94;;;12.96;69.24
81865;BME280;71313;43.514;1.500;2023-11-21T06:39:27;100024.91;;;12.98;69.50
81865;BME280;71313;43.514;1.500;2023-11-21T06:41:54;100030.00;;;13.01;69.03
81865;BME280;71313;43.514;1.500;2023-11-21T06:44:21;100031.72;;;13.02;70.22
81865;BME280;71313;43.514;1.500;2023-11-21T06:46:48;100024.91;;;12.98;70.18
81865;BME280;71313;43.514;1.500;2023-11-21T06:49:16;100030.75;;;13.03;70.12
81865;BME280;71313;43.514;1.500;2023-11-21T06:51:42;100033.72;;;13.00;69.87
81865;BME280;71313;43.514;1.500;2023-11-21T06:54:08;100045.19;;;13.02;69.41
81865;BME280;71313;43.514;1.500;2023-11-21T06:56:35;100044.97;;;13.05;69.45
81865;BME280;71313;43.514;1.500;2023-11-21T06:59:05;100044.97;;;13.05;69.61
81865;BME280;71313;43.514;1.500;2023-11-21T07:01:33;100046.91;;;13.03;69.80
81865;BME280;71313;43.514;1.500;2023-11-21T07:04:05;100047.19;;;13.00;69.17
81865;BME280;71313;43.514;1.500;2023-11-21T07:06:32;100046.78;;;12.93;69.53
81865;BME280;71313;43.514;1.500;2023-11-21T07:08:59;100054.25;;;12.90;70.34
81865;BME280;71313;43.514;1.500;2023-11-21T07:11:27;100039.28;;;12.86;69.61
81865;BME280;71313;43.514;1.500;2023-11-21T07:13:54;100046.63;;;12.84;70.98
81865;BME280;71313;43.514;1.500;2023-11-21T07:16:20;100042.44;;;12.80;70.23
81865;BME280;71313;43.514;1.500;2023-11-21T07:18:47;100051.72;;;12.76;71.39
81865;BME280;71313;43.514;1.500;2023-11-21T07:21:14;100036.78;;;12.72;70.53
81865;BME280;71313;43.514;1.500;2023-11-21T07:23:43;100044.13;;;12.70;71.22
81865;BME280;71313;43.514;1.500;2023-11-21T07:26:08;100048.88;;;12.66;71.09
81865;BME280;71313;43.514;1.500;2023-11-21T07:28:35;100049.72;;;12.66;71.36
81865;BME280;71313;43.514;1.500;2023-11-21T07:31:02;100053.63;;;12.62;72.34
81865;BME280;71313;43.514;1.500;2023-11-21T07:33:29;100060.94;;;12.60;71.54
81865;BME280;71313;43.514;1.500;2023-11-21T07:35:56;100054.94;;;12.57;71.99
81865;BME280;71313;43.514;1.500;2023-11-21T07:38:21;100057.50;;;12.58;72.91
81865;BME280;71313;43.514;1.500;2023-11-21T07:40:52;100048.69;;;12.56;72.21
81865;BME280;71313;43.514;1.500;2023-11-21T07:43:17;100063.75;;;12.59;72.86
81865;BME280;71313;43.514;1.500;2023-11-21T07:45:45;100067.31;;;12.59;72.62
81865;BME280;71313;43.514;1.500;2023-11-21T07:48:12;100062.91;;;12.58;73.01
81865;BME280;71313;43.514;1.500;2023-11-21T07:50:37;100077.09;;;12.60;73.12
81865;BME280;71313;43.514;1.500;2023-11-21T07:53:05;100072.69;;;12.59;72.95
81865;BME280;71313;43.514;1.500;2023-11-21T07:55:31;100083.97;;;12.64;72.73
81865;BME280;71313;43.514;1.500;2023-11-21T07:57:58;100086.78;;;12.63;72.67
81865;BME280;71313;43.514;1.500;2023-11-21T08:00:26;100083.00;;;12.65;73.62
81865;BME280;71313;43.514;1.500;2023-11-21T08:02:57;100084.84;;;12.65;72.85
81865;BME280;71313;43.514;1.500;2023-11-21T08:05:23;100092.91;;;12.65;72.75
81865;BME280;71313;43.514;1.500;2023-11-21T08:07:48;100094.75;;;12.64;73.57
81865;BME280;71313;43.514;1.500;2023-11-21T08:10:14;100091.06;;;12.65;74.10
81865;BME280;71313;43.514;1.500;2023-11-21T08:12:42;100100.88;;;12.66;73.30
81865;BME280;71313;43.514;1.500;2023-11-21T08:15:09;100110.44;;;12.71;73.76
81865;BME280;71313;43.514;1.500;2023-11-21T08:17:35;100104.09;;;12.72;74.44
81865;BME280;71313;43.514;1.500;2023-11-21T08:20:04;100106.78;;;12.72;73.49
81865;BME280;71313;43.514;1.500;2023-11-21T08:22:33;100096.13;;;12.70;74.31
81865;BME280;71313;43.514;1.500;2023-11-21T08:25:01;100104.72;;;12.75;74.62
81865;BME280;71313;43.514;1.500;2023-11-21T08:27:29;100110.84;;;12.77;74.59
81865;BME280;71313;43.514;1.500;2023-11-21T08:29:56;100114.41;;;12.78;74.64
81865;BME280;71313;43.514;1.500;2023-11-21T08:32:23;100110.72;;;12.79;74.72
81865;BME280;71313;43.514;1.500;2023-11-21T08:34:52;100105.34;;;12.79;74.17
81865;BME280;71313;43.514;1.500;2023-11-21T08:37:17;100107.81;;;12.82;73.80
81865;BME280;71313;43.514;1.500;2023-11-21T08:39:47;100113.19;;;12.82;74.61
81865;BME280;71313;43.514;1.500;2023-11-21T08:42:16;100109.75;;;12.80;74.92
81865;BME280;71313;43.514;1.500;2023-11-21T08:44:41;100104.38;;;12.80;75.47
81865;BME280;71313;43.514;1.500;2023-11-21T08:47:09;100106.31;;;12.78;75.06
81865;BME280;71313;43.514;1.500;2023-11-21T08:49:36;100099.72;;;12.82;75.62
81865;BME280;71313;43.514;1.500;2023-11-21T08:52:04;100095.94;;;12.84;75.05
81865;BME280;71313;43.514;1.500;2023-11-21T08:54:30;100091.44;;;12.85;75.04
81865;BME280;71313;43.514;1.500;2023-11-21T08:56:57;100098.53;;;12.86;75.62
81865;BME280;71313;43.514;1.500;2023-11-21T08:59:26;100103.69;;;12.89;74.74
81865;BME280;71313;43.514;1.500;2023-11-21T09:01:52;100104.56;;;12.89;75.38
81865;BME280;71313;43.514;1.500;2023-11-21T09:04:19;100105.06;;;12.94;75.03
81865;BME280;71313;43.514;1.500;2023-11-21T09:06:44;100103.22;;;12.95;75.41
81865;BME280;71313;43.514;1.500;2023-11-21T09:09:11;100099.56;;;12.96;75.91
81865;BME280;71313;43.514;1.500;2023-11-21T09:11:38;100107.53;;;12.97;74.72
81865;BME280;71313;43.514;1.500;2023-11-21T09:14:04;100107.25;;;13.00;75.73
81865;BME280;71313;43.514;1.500;2023-11-21T09:16:30;100106.44;;;13.00;75.16
81865;BME280;71313;43.514;1.500;2023-11-21T09:18:57;100112.53;;;13.02;75.30
81865;BME280;71313;43.514;1.500;2023-11-21T09:21:22;100113.50;;;13.01;75.29
81865;BME280;71313;43.514;1.500;2023-11-21T09:23:50;100108.13;;;13.01;75.31
81865;BME280;71313;43.514;1.500;2023-11-21T09:26:17;100104.72;;;12.99;76.05
81865;BME280;71313;43.514;1.500;2023-11-21T09:28:46;100104.72;;;12.99;75.79
81865;BME280;71313;43.514;1.500;2023-11-21T09:31:13;100102.50;;;13.04;74.84
81865;BME280;71313;43.514;1.500;2023-11-21T09:33:42;100111.56;;;13.03;75.30
81865;BME280;71313;43.514;1.500;2023-11-21T09:36:12;100113.28;;;13.04;75.23
81865;BME280;71313;43.514;1.500;2023-11-21T09:38:42;100115.22;;;13.02;75.98
81865;BME280;71313;43.514;1.500;2023-11-21T09:41:49;100121.75;;;12.99;76.43
81865;BME280;71313;43.514;1.500;2023-11-21T09:44:18;100126.00;;;13.02;75.69
81865;BME280;71313;43.514;1.500;2023-11-21T09:46:47;100116.34;;;12.99;75.44
81865;BME280;71313;43.514;1.500;2023-11-21T09:49:13;100106.03;;;12.93;75.67
81865;BME280;71313;43.514;1.500;2023-11-21T09:51:42;100114.50;;;13.00;75.94
81865;BME280;71313;43.514;1.500;2023-11-21T09:54:10;100129.44;;;13.04;75.55
81865;BME280;71313;43.514;1.500;2023-11-21T09:56:37;100106.03;;;12.93;75.88
81865;BME280;71313;43.514;1.500;2023-11-21T09:59:05;100123.19;;;13.04;76.45
81865;BME280;71313;43.514;1.500;2023-11-21T10:01:36;100131.16;;;13.05;76.13
81865;BME280;71313;43.514;1.500;2023-11-21T10:04:03;100131.16;;;13.05;76.53
81865;BME280;71313;43.514;1.500;2023-11-21T10:06:29;100126.00;;;13.02;75.41
81865;BME280;71313;43.514;1.500;2023-11-21T10:08:58;100122.09;;;13.06;75.67
81865;BME280;71313;43.514;1.500;2023-11-21T10:11:27;100121.88;;;13.09;75.97
81865;BME280;71313;43.514;1.500;2023-11-21T10:13:55;100125.31;;;13.11;76.13
81865;BME280;71313;43.514;1.500;2023-11-21T10:16:27;100132.31;;;13.14;76.52
81865;BME280;71313;43.514;1.500;2023-11-21T10:18:53;100134.78;;;13.17;76.27
81865;BME280;71313;43.514;1.500;2023-11-21T10:21:23;100138.25;;;13.19;76.64
81865;BME280;71313;43.514;1.500;2023-11-21T10:23:50;100128.56;;;13.16;75.85
81865;BME280;71313;43.514;1.500;2023-11-21T10:26:18;100129.19;;;13.20;76.36
81865;BME280;71313;43.514;1.500;2023-11-21T10:28:56;100140.59;;;13.23;76.66
81865;BME280;71313;43.514;1.500;2023-11-21T10:31:23;100133.72;;;13.19;76.19
81865;BME280;71313;43.514;1.500;2023-11-21T10:33:50;100140.47;;;13.25;76.28
81865;BME280;71313;43.514;1.500;2023-11-21T10:36:29;100131.53;;;13.24;77.01
81865;BME280;71313;43.514;1.500;2023-11-21T10:38:54;100116.34;;;13.23;76.53
81865;BME280;71313;43.514;1.500;2023-11-21T10:41:20;100122.22;;;13.28;76.54
81865;BME280;71313;43.514;1.500;2023-11-21T10:43:48;100118.56;;;13.29;76.82
81865;BME280;71313;43.514;1.500;2023-11-21T10:46:14;100120.03;;;13.33;75.93
81865;BME280;71313;43.514;1.500;2023-11-21T10:48:42;100125.19;;;13.37;76.93
81865;BME280;71313;43.514;1.500;2023-11-21T10:51:09;100122.28;;;13.40;76.01
81865;BME280;71313;43.514;1.500;2023-11-21T10:53:40;100126.44;;;13.44;76.19
81865;BME280;71313;43.514;1.500;2023-11-21T10:56:10;100120.81;;;13.47;75.61
81865;BME280;71313;43.514;1.500;2023-11-21T10:58:43;100119.84;;;13.48;76.14
81865;BME280;71313;43.514;1.500;2023-11-21T11:01:09;100115.19;;;13.50;75.98
81865;BME280;71313;43.514;1.500;2023-11-21T11:03:37;100111.75;;;13.48;75.45
81865;BME280;71313;43.514;1.500;2023-11-21T11:06:06;100108.94;;;13.49;75.67
81865;BME280;71313;43.514;1.500;2023-11-21T11:08:38;100108.09;;;13.49;75.21
81865;BME280;71313;43.514;1.500;2023-11-21T11:11:05;100112.50;;;13.50;75.34
81865;BME280;71313;43.514;1.500;2023-11-21T11:13:31;100111.53;;;13.51;75.48
81865;BME280;71313;43.514;1.500;2023-11-21T11:16:01;100113.97;;;13.54;76.07
81865;BME280;71313;43.514;1.500;2023-11-21T11:18:32;100116.56;;;13.55;76.30
81865;BME280;71313;43.514;1.500;2023-11-21T11:21:13;100118.16;;;13.58;75.60
81865;BME280;71313;43.514;1.500;2023-11-21T11:23:57;100112.53;;;13.61;75.75
81865;BME280;71313;43.514;1.500;2023-11-21T11:26:45;100109.09;;;13.59;75.80
81865;BME280;71313;43.514;1.500;2023-11-21T11:30:10;100113.50;;;13.60;76.01
81865;BME280;71313;43.514;1.500;2023-11-21T11:32:16;100101.97;;;13.58;75.74
81865;BME280;71313;43.514;1.500;2023-11-21T11:35:01;100108.22;;;13.58;75.85
81865;BME280;71313;43.514;1.500;2023-11-21T11:37:33;100109.09;;;13.59;75.99
81865;BME280;71313;43.514;1.500;2023-11-21T11:39:59;100105.41;;;13.60;76.36
81865;BME280;71313;43.514;1.500;2023-11-21T11:42:28;100113.38;;;13.61;75.84
81865;BME280;71313;43.514;1.500;2023-11-21T11:44:55;100110.69;;;13.61;76.50
81865;BME280;71313;43.514;1.500;2023-11-21T11:47:31;100101.50;;;13.64;75.95
81865;BME280;71313;43.514;1.500;2023-11-21T11:52:54;100099.56;;;13.66;75.66
81865;BME280;71313;43.514;1.500;2023-11-21T11:55:21;100093.78;;;13.71;75.66
81865;BME280;71313;43.514;1.500;2023-11-21T11:57:52;100091.47;;;13.77;76.40
81865;BME280;71313;43.514;1.500;2023-11-21T12:02:52;100088.28;;;13.83;75.23
81865;BME280;71313;43.514;1.500;2023-11-21T12:05:21;100079.97;;;13.86;75.10
81865;BME280;71313;43.514;1.500;2023-11-21T12:07:52;100092.22;;;13.90;75.49
81865;BME280;71313;43.514;1.500;2023-11-21T12:10:20;100082.28;;;13.91;75.58
81865;BME280;71313;43.514;1.500;2023-11-21T12:12:55;100084.63;;;13.95;75.13
81865;BME280;71313;43.514;1.500;2023-11-21T12:15:21;100087.31;;;13.95;74.60
81865;BME280;71313;43.514;1.500;2023-11-21T12:17:47;100080.94;;;13.96;75.30
81865;BME280;71313;43.514;1.500;2023-11-21T12:20:15;100071.75;;;13.99;75.10
81865;BME280;71313;43.514;1.500;2023-11-21T12:22:51;100083.16;;;14.03;75.09
81865;BME280;71313;43.514;1.500;2023-11-21T12:25:18;100079.34;;;14.05;75.02
81865;BME280;71313;43.514;1.500;2023-11-21T12:27:46;100085.38;;;14.09;74.33
81865;BME280;71313;43.514;1.500;2023-11-21T12:30:15;100083.41;;;14.11;74.50
81865;BME280;71313;43.514;1.500;2023-11-21T12:32:48;100090.28;;;14.15;74.28
81865;BME280;71313;43.514;1.500;2023-11-21T12:35:15;100079.47;;;14.15;74.65
81865;BME280;71313;43.514;1.500;2023-11-21T12:37:45;100088.31;;;14.17;74.86
81865;BME280;71313;43.514;1.500;2023-11-21T12:40:12;100087.31;;;14.18;75.00
81865;BME280;71313;43.514;1.500;2023-11-21T12:42:44;100082.91;;;14.17;74.33
81865;BME280;71313;43.514;1.500;2023-11-21T12:47:43;100090.88;;;14.18;74.96
81865;BME280;71313;43.514;1.500;2023-11-21T12:50:12;100092.13;;;14.14;74.48
81865;BME280;71313;43.514;1.500;2023-11-21T12:52:52;100106.47;;;14.15;74.39
81865;BME280;71313;43.514;1.500;2023-11-21T12:55:20;100100.44;;;14.11;73.26
81865;BME280;71313;43.514;1.500;2023-11-21T12:57:54;100105.97;;;14.10;73.92
81865;BME280;71313;43.514;1.500;2023-11-21T13:00:31;100099.97;;;14.06;74.46